메인 페이지
METAR-TAF:

METAR-TAF

공항 :

포르드프랑스, 마르티니크

위도: 14-36N, 경도: 061-00W, 고도: 5m

현재 날씨관측

예보는 16분 전, 20:00시(UTC)에 발표되었습니다.
동북동10kt북동풍과 풍을 오가는
온도 29°C
습도 74%
기압 1012 hPa
시정 10km 이상
고도 1700ft 상공 구름 조금
고도 3100ft 상공 구름 보통
고도 5600ft 상공 구름 많음

METAR: TFFF 182000Z AUTO 07010KT 040V100 9999 FEW017 SCT031 BKN056 29/24 Q1012 TEMPO VRB15G25KT 2000 TSRA BKN010CB

시각: 16:16 (20:16 UTC)

예보

예보는 2 시간 12분 전, 18:04시(UTC)에 발표되었습니다.
예보 대상 시간: 18일 18시부터 19일 18시까지 (UTC)
8kt
시정 10km 이상
고도 3000ft 상공 구름 조금
고도 4000ft 상공 구름 보통
일시적
18일 18시부터 19일 18시까지 (UTC)
시정: 4000m
고도 1300ft 상공 구름 조금, 적란운.
고도 1800ft 상공 구름 많음, 타워링 적운.
소나기
확률 30% :
일시적
18일 18시부터 19일 12시까지 (UTC)
여러 방향의 바람 15kt, 순간 최대 풍속 25kt
시정: 2000m
고도 1000ft 상공 구름 많음, 적란운.
뇌우, 비

TAF: TFFF 181804Z 1818/1918 09008KT 9999 FEW030 SCT040 TEMPO 1818/1918 4000 SHRA FEW013CB BKN018TCU PROB30 TEMPO 1818/1912 VRB15G25KT 2000 TSRA BKN010CB

4,000개 이상의 공항 관측 자료 및 예보 (METAR 및 TAF 보고).

지도상에서 검색 가능한 기상관측소가 노란 점과 빨간 점으로 표시되어 있습니다.

기상관측소 명을 보려면 표시 위로 마우스를 이동하세요.

날씨 관측과 예보를 보려면 클릭하세요.

지도 변경 : 확대하려면 엑스 표시가 있는 녹색 버튼, 축소하려면 빼기 표시가 있는 녹색 버튼, 다음 페이지의 지도를 보려면 녹색 화살표를 클릭하세요.


METAR-TAF: